Taylors Falls, Minnesota
Current Conditions -  °F | °C
As of 2:35 AM on Sunday 23 Nov 2014 (Local Time) from KOEO Reporting Station
Moderate Fog Moderate Fog  
Wind Chill: 36°   Ceiling: 300
Heat Index: 40°   Visibility: 0.25mi
Dew Point: 40°   Wind: 6mph
Humidity: 100%   Direction: 150°SSE
Pressure: 29.49"   Gusts: NA
Location:  45.4°N, 92.65°W
Report Text: KOEO 230835Z AUTO 15005KT 1/4SM FG OVC003 05/05 A2949 RMK AO2 T00460046
Loading
Personal Weather Stations






























Interactive Weather Map New forecast layout! Learn more

10-Day Weather Forecast

Advertisements
Track Severe Weather on mobile